createdAt,value
2019-03-22T06:34:55.804Z,0.00
2019-03-22T06:35:56.039Z,0.00
2019-03-22T06:38:00.237Z,4.46
2019-03-22T06:39:00.450Z,1.42
2019-03-22T06:41:04.603Z,0.00
2019-03-22T06:42:04.835Z,0.00
2019-03-22T06:44:09.011Z,0.00
2019-03-22T06:45:09.252Z,0.00
2019-03-22T06:47:13.401Z,9.86
2019-03-22T06:48:13.638Z,12.24
2019-03-22T06:50:17.816Z,18.60
2019-03-22T06:51:18.050Z,15.85
2019-03-22T06:53:22.228Z,6.54
2019-03-22T06:54:31.589Z,8.54
2019-03-22T06:56:26.618Z,10.91
2019-03-22T06:57:26.853Z,12.81
2019-03-22T06:59:19.963Z,17.94
2019-03-22T07:00:20.199Z,21.74
2019-03-22T07:02:24.350Z,30.94
2019-03-22T07:03:24.587Z,29.92
2019-03-22T07:05:28.760Z,36.28
2019-03-22T07:06:28.998Z,43.62
2019-03-22T07:08:33.176Z,54.77
2019-03-22T07:09:33.411Z,61.80
2019-03-22T07:11:37.563Z,65.89
2019-03-22T07:12:37.799Z,71.72
2019-03-22T07:14:41.984Z,82.80
2019-03-22T07:15:42.294Z,86.90
2019-03-22T07:17:46.394Z,91.84
2019-03-22T07:18:46.633Z,93.89
2019-03-22T07:20:50.786Z,99.99
2019-03-22T07:21:51.032Z,99.99
2019-03-22T07:23:55.208Z,99.99
2019-03-22T07:24:55.447Z,99.99
2019-03-22T07:26:59.610Z,99.99
2019-03-22T07:27:59.852Z,99.99
2019-03-22T07:30:04.037Z,99.99
2019-03-22T07:31:04.275Z,99.99
2019-03-22T07:33:08.450Z,99.99
2019-03-22T07:34:08.690Z,99.99
2019-03-22T07:36:12.850Z,99.99
2019-03-22T07:37:13.091Z,99.99
2019-03-22T07:39:06.199Z,99.99
2019-03-22T07:40:06.442Z,99.99
2019-03-22T07:42:10.601Z,99.99
2019-03-22T07:43:10.843Z,99.99
2019-03-22T07:45:15.023Z,99.99
2019-03-22T07:46:16.025Z,99.29
2019-03-22T07:48:19.520Z,89.81
2019-03-22T07:49:19.763Z,89.66
2019-03-22T07:51:23.932Z,86.98
2019-03-22T07:52:24.170Z,83.29
2019-03-22T07:54:28.358Z,82.75
2019-03-22T07:55:28.600Z,84.38
2019-03-22T07:57:32.767Z,86.21
2019-03-22T07:58:33.010Z,83.71
2019-03-22T08:00:37.196Z,80.73
2019-03-22T08:01:37.438Z,76.25
2019-03-22T08:03:41.634Z,75.77
2019-03-22T08:04:41.872Z,75.82
2019-03-22T08:06:46.039Z,79.53
2019-03-22T08:07:46.283Z,81.26
2019-03-22T08:09:39.440Z,85.38
2019-03-22T08:10:39.673Z,85.00
2019-03-22T08:12:43.815Z,83.85
2019-03-22T08:13:44.085Z,82.45
2019-03-22T08:15:48.294Z,88.12
2019-03-22T08:16:48.510Z,91.57
2019-03-22T08:18:52.696Z,94.12
2019-03-22T08:19:52.941Z,94.12
2019-03-22T08:21:57.112Z,92.05
2019-03-22T08:22:57.358Z,87.49
2019-03-22T08:25:01.584Z,83.89
2019-03-22T08:26:01.797Z,82.70
2019-03-22T08:28:05.999Z,82.59
2019-03-22T08:29:06.230Z,79.42
2019-03-22T08:31:10.426Z,77.69
2019-03-22T08:32:10.663Z,76.48
2019-03-22T08:34:14.922Z,75.87
2019-03-22T08:35:15.104Z,75.48
2019-03-22T08:37:19.273Z,74.27
2019-03-22T08:38:19.519Z,76.31
2019-03-22T08:40:23.721Z,78.11
2019-03-22T08:41:24.143Z,76.00
2019-03-22T08:43:28.175Z,72.03
2019-03-22T08:44:28.408Z,69.57
2019-03-22T08:46:32.602Z,68.22
2019-03-22T08:47:34.173Z,67.19
2019-03-22T08:49:26.019Z,65.14
2019-03-22T08:50:26.195Z,62.28
2019-03-22T08:52:30.369Z,60.35
2019-03-22T08:53:30.621Z,60.38
2019-03-22T08:55:34.824Z,58.48
2019-03-22T08:56:36.202Z,57.09
2019-03-22T08:58:39.267Z,53.67
2019-03-22T08:59:39.517Z,53.41
2019-03-22T09:01:43.693Z,49.80
2019-03-22T09:02:43.969Z,49.32
2019-03-22T09:04:48.198Z,50.33
2019-03-22T09:05:48.403Z,50.84
2019-03-22T09:07:52.592Z,51.20
2019-03-22T09:08:52.867Z,50.89
2019-03-22T09:10:57.043Z,53.91
2019-03-22T09:11:57.332Z,54.29
2019-03-22T09:14:01.497Z,52.41
2019-03-22T09:15:01.799Z,51.66
2019-03-22T09:17:05.927Z,50.45
2019-03-22T09:18:06.182Z,49.87
2019-03-22T09:20:10.427Z,47.96
2019-03-22T09:21:10.634Z,47.86
2019-03-22T09:23:14.836Z,48.13
2019-03-22T09:24:15.061Z,48.79
2019-03-22T09:26:20.126Z,48.90
2019-03-22T09:27:19.518Z,49.19
2019-03-22T09:29:12.684Z,48.15
2019-03-22T09:30:12.904Z,48.54
2019-03-22T09:32:17.096Z,46.75
2019-03-22T09:33:17.336Z,45.53
2019-03-22T09:35:21.542Z,45.53
2019-03-22T09:36:21.836Z,45.51
2019-03-22T09:38:28.516Z,48.08
2019-03-22T09:39:26.246Z,48.00
2019-03-22T09:41:30.440Z,46.75
2019-03-22T09:42:30.694Z,46.26
2019-03-22T09:44:43.086Z,46.84
2019-03-22T09:45:35.178Z,46.65
2019-03-22T09:47:39.362Z,47.89
2019-03-22T09:48:39.591Z,50.21
2019-03-22T09:50:43.810Z,48.81
2019-03-22T09:51:44.050Z,46.96
2019-03-22T09:53:48.254Z,45.00
2019-03-22T09:54:48.516Z,44.54
2019-03-22T09:56:52.723Z,43.30
2019-03-22T09:57:52.965Z,43.41
2019-03-22T09:59:57.160Z,41.32
2019-03-22T10:00:57.438Z,42.57
2019-03-22T10:03:01.608Z,43.45
2019-03-22T10:04:01.857Z,43.64
2019-03-22T10:06:06.068Z,41.39
2019-03-22T10:07:06.321Z,41.74
2019-03-22T10:09:02.644Z,42.25
2019-03-22T10:09:59.692Z,45.35
2019-03-22T10:12:03.929Z,45.61
2019-03-22T10:13:04.155Z,44.18
2019-03-22T10:15:08.368Z,43.70
2019-03-22T10:16:08.678Z,43.93
2019-03-22T10:18:12.823Z,42.29
2019-03-22T10:19:13.132Z,44.71
2019-03-22T10:21:22.485Z,41.88
2019-03-22T10:22:17.537Z,41.12
2019-03-22T10:24:21.744Z,44.53
2019-03-22T10:25:22.087Z,45.76
2019-03-22T10:27:26.234Z,44.71
2019-03-22T10:28:26.481Z,41.53
2019-03-22T10:30:30.686Z,42.20
2019-03-22T10:31:37.139Z,46.56
2019-03-22T10:33:35.122Z,52.25
2019-03-22T10:34:35.367Z,51.77
2019-03-22T10:36:39.580Z,51.07
2019-03-22T10:37:39.977Z,52.57
2019-03-22T10:39:32.984Z,49.70
2019-03-22T10:40:33.251Z,50.45
2019-03-22T10:42:37.460Z,50.62
2019-03-22T10:43:37.677Z,49.32
2019-03-22T10:45:41.920Z,49.22
2019-03-22T10:46:42.162Z,48.54
2019-03-22T10:48:46.389Z,48.37
2019-03-22T10:49:46.569Z,46.88
2019-03-22T10:51:56.808Z,44.23
2019-03-22T10:52:51.074Z,42.24
2019-03-22T10:54:55.294Z,44.34
2019-03-22T10:55:55.491Z,46.22
2019-03-22T10:57:59.675Z,46.75
2019-03-22T10:58:59.929Z,48.47
2019-03-22T11:01:04.136Z,50.93
2019-03-22T11:02:07.535Z,51.17
2019-03-22T11:05:08.838Z,52.64
2019-03-22T11:07:13.046Z,52.64
2019-03-22T11:08:13.309Z,52.52
2019-03-22T11:10:17.503Z,52.71
2019-03-22T11:11:17.757Z,50.71
2019-03-22T11:13:21.939Z,48.47
2019-03-22T11:14:22.196Z,50.69
2019-03-22T11:16:26.401Z,51.00
2019-03-22T11:17:26.663Z,51.48
2019-03-22T11:19:19.765Z,51.03
2019-03-22T11:20:20.021Z,52.31
2019-03-22T11:22:24.240Z,52.64
2019-03-22T11:23:24.479Z,52.21
2019-03-22T11:25:28.687Z,45.17
2019-03-22T11:26:28.937Z,43.32
2019-03-22T11:28:33.119Z,41.74
2019-03-22T11:29:33.376Z,45.23
2019-03-22T11:31:40.185Z,51.75
2019-03-22T11:32:37.839Z,50.28
2019-03-22T11:34:42.048Z,51.51
2019-03-22T11:35:42.304Z,53.25
2019-03-22T11:37:46.489Z,53.59
2019-03-22T11:38:46.742Z,50.48
2019-03-22T11:40:50.953Z,51.78
2019-03-22T11:41:51.206Z,50.52
2019-03-22T11:43:55.402Z,49.37
2019-03-22T11:44:55.650Z,47.91
2019-03-22T11:46:59.857Z,44.48
2019-03-22T11:48:00.612Z,43.82
2019-03-22T11:50:04.317Z,44.74
2019-03-22T11:51:04.574Z,46.15
2019-03-22T11:53:08.763Z,45.97
2019-03-22T11:54:09.015Z,45.15
2019-03-22T11:56:13.223Z,46.62
2019-03-22T11:57:13.475Z,44.85
2019-03-22T11:59:06.626Z,44.74
2019-03-22T12:00:06.846Z,46.80
2019-03-22T12:02:11.055Z,48.83
2019-03-22T12:03:11.307Z,50.24
2019-03-22T12:05:15.518Z,46.29
2019-03-22T12:06:15.771Z,47.24
2019-03-22T12:08:19.964Z,45.95
2019-03-22T12:09:20.210Z,46.04
2019-03-22T12:11:24.468Z,46.92
2019-03-22T12:12:24.682Z,46.46
2019-03-22T12:14:28.866Z,49.32
2019-03-22T12:15:29.122Z,49.87
2019-03-22T12:17:33.336Z,50.11
2019-03-22T12:18:33.594Z,50.11
2019-03-22T12:20:37.801Z,47.43
2019-03-22T12:21:38.059Z,47.48
2019-03-22T12:23:42.245Z,49.51
2019-03-22T12:24:42.502Z,49.77
2019-03-22T12:26:46.711Z,51.44
2019-03-22T12:27:48.477Z,47.79
2019-03-22T12:29:40.074Z,43.54
2019-03-22T12:30:40.331Z,44.90
2019-03-22T12:32:44.539Z,44.74
2019-03-22T12:33:44.800Z,47.14
2019-03-22T12:35:49.498Z,45.40
2019-03-22T12:36:49.756Z,46.39
2019-03-22T12:38:53.949Z,49.95
2019-03-22T12:39:54.204Z,51.87
2019-03-22T12:41:58.415Z,50.52
2019-03-22T12:42:58.669Z,51.37
2019-03-22T12:45:02.877Z,51.65
2019-03-22T12:46:03.131Z,49.24
2019-03-22T12:48:07.321Z,53.42
2019-03-22T12:49:07.572Z,51.64
2019-03-22T12:51:11.778Z,49.32
2019-03-22T12:52:12.033Z,48.76
2019-03-22T12:54:16.216Z,50.33
2019-03-22T12:55:16.469Z,49.99
2019-03-22T12:57:20.726Z,50.31
2019-03-22T12:58:21.099Z,50.28
2019-03-22T13:00:25.324Z,51.73
2019-03-22T13:01:25.605Z,52.12
2019-03-22T13:03:29.794Z,49.17
2019-03-22T13:04:30.081Z,50.04
2019-03-22T13:06:34.377Z,51.18
2019-03-22T13:07:34.698Z,48.49
2019-03-22T13:09:28.865Z,48.83
2019-03-22T13:10:29.178Z,51.15
2019-03-22T13:12:22.831Z,52.59
2019-03-22T13:13:23.071Z,50.38
2019-03-22T13:15:27.366Z,52.14
2019-03-22T13:16:27.659Z,51.70
2019-03-22T13:18:33.281Z,48.22
2019-03-22T13:19:33.170Z,45.37
2019-03-22T13:21:37.571Z,47.11
2019-03-22T13:22:37.725Z,45.82
2019-03-22T13:24:41.997Z,41.32
2019-03-22T13:25:42.355Z,41.89
2019-03-22T13:27:46.591Z,43.58
2019-03-22T13:28:46.886Z,44.54
2019-03-22T13:30:51.104Z,44.97
2019-03-22T13:31:51.433Z,42.08
2019-03-22T13:33:55.614Z,45.32
2019-03-22T13:34:55.899Z,43.50
2019-03-22T13:37:01.081Z,43.73
2019-03-22T13:38:01.334Z,44.98
2019-03-22T13:40:05.521Z,40.64
2019-03-22T13:41:05.762Z,38.42
2019-03-22T13:43:09.988Z,41.80
2019-03-22T13:44:10.263Z,45.03
2019-03-22T13:46:14.556Z,47.77
2019-03-22T13:47:14.810Z,47.16
2019-03-22T13:49:07.924Z,44.13
2019-03-22T13:50:08.205Z,43.29
2019-03-22T13:52:14.248Z,47.41
2019-03-22T13:53:12.690Z,45.98
2019-03-22T13:55:16.883Z,44.77
2019-03-22T13:56:17.142Z,45.91
2019-03-22T13:58:21.440Z,46.49
2019-03-22T13:59:21.796Z,46.68
2019-03-22T14:01:26.006Z,45.28
2019-03-22T14:02:26.257Z,44.57
2019-03-22T14:04:30.457Z,42.61
2019-03-22T14:05:30.705Z,44.29
2019-03-22T14:07:35.928Z,48.52
2019-03-22T14:08:36.179Z,48.11
2019-03-22T14:10:40.388Z,46.42
2019-03-22T14:11:40.644Z,46.78
2019-03-22T14:13:44.850Z,46.60
2019-03-22T14:14:45.110Z,45.57
2019-03-22T14:16:49.327Z,46.80
2019-03-22T14:17:49.580Z,45.64
2019-03-22T14:19:42.701Z,45.54
2019-03-22T14:20:42.952Z,46.03
2019-03-22T14:22:47.164Z,48.39
2019-03-22T14:23:47.417Z,47.63
2019-03-22T14:25:51.628Z,45.90
2019-03-22T14:26:51.893Z,45.89
2019-03-22T14:28:56.263Z,48.21
2019-03-22T14:29:56.519Z,49.85
2019-03-22T14:32:00.731Z,48.74
2019-03-22T14:33:00.984Z,50.76
2019-03-22T14:35:05.172Z,49.58
2019-03-22T14:36:05.423Z,48.54
2019-03-22T14:38:09.633Z,50.47
2019-03-22T14:39:09.887Z,49.90
2019-03-22T14:41:14.102Z,48.35
2019-03-22T14:42:14.351Z,46.73
2019-03-22T14:44:25.251Z,48.49
2019-03-22T14:45:18.777Z,47.70
2019-03-22T14:47:22.987Z,46.44
2019-03-22T14:48:23.239Z,45.76
2019-03-22T14:50:27.429Z,45.79
2019-03-22T14:51:27.680Z,45.50
2019-03-22T14:53:31.882Z,46.47
2019-03-22T14:54:32.132Z,45.86
2019-03-22T14:56:37.347Z,43.59
2019-03-22T14:57:47.869Z,44.57
2019-03-22T14:59:30.727Z,43.37
2019-03-22T15:00:30.982Z,43.59
2019-03-22T15:02:35.189Z,43.95
2019-03-22T15:03:35.432Z,44.56
2019-03-22T15:05:39.613Z,44.70
2019-03-22T15:06:39.864Z,45.55
2019-03-22T15:08:44.067Z,45.00
2019-03-22T15:09:46.235Z,45.28
2019-03-22T15:11:48.523Z,46.15
2019-03-22T15:12:48.772Z,46.06
2019-03-22T15:14:52.957Z,46.06
2019-03-22T15:15:53.209Z,46.81
2019-03-22T15:17:57.416Z,45.65
2019-03-22T15:18:57.660Z,47.02
2019-03-22T15:21:01.839Z,46.64
2019-03-22T15:22:02.090Z,46.06
2019-03-22T15:24:06.293Z,45.36
2019-03-22T15:25:06.542Z,45.72
2019-03-22T15:27:10.745Z,46.33
2019-03-22T15:28:10.995Z,46.92
2019-03-22T15:30:15.175Z,46.17
2019-03-22T15:31:15.422Z,44.65
2019-03-22T15:33:19.657Z,45.38
2019-03-22T15:34:19.874Z,45.07
2019-03-22T15:36:24.109Z,48.03
2019-03-22T15:37:24.453Z,48.90
2019-03-22T15:39:17.600Z,46.51
2019-03-22T15:40:17.718Z,45.82
2019-03-22T15:42:21.919Z,48.90
2019-03-22T15:43:22.168Z,46.81
2019-03-22T15:45:26.347Z,47.55
2019-03-22T15:46:26.595Z,47.41
2019-03-22T15:48:30.796Z,44.63
2019-03-22T15:49:31.047Z,44.46
2019-03-22T15:51:35.261Z,44.39
2019-03-22T15:52:35.507Z,45.31
2019-03-22T15:54:40.693Z,47.34
2019-03-22T15:55:40.945Z,51.58
2019-03-22T15:57:45.154Z,50.78
2019-03-22T15:58:45.401Z,49.53
2019-03-22T16:00:49.583Z,49.94
2019-03-22T16:01:49.837Z,49.65
2019-03-22T16:03:54.040Z,50.23
2019-03-22T16:04:54.287Z,51.00
2019-03-22T16:06:59.501Z,50.23
2019-03-22T16:07:59.746Z,48.18
2019-03-22T16:10:03.922Z,48.76
2019-03-22T16:11:04.169Z,48.49
2019-03-22T16:13:08.369Z,48.79
2019-03-22T16:14:08.617Z,49.55
2019-03-22T16:16:12.794Z,48.86
2019-03-22T16:17:13.047Z,48.76
2019-03-22T16:19:06.194Z,49.73
2019-03-22T16:20:06.441Z,51.36
2019-03-22T16:22:10.639Z,50.88
2019-03-22T16:23:10.888Z,50.09
2019-03-22T16:25:15.066Z,49.79
2019-03-22T16:26:15.311Z,49.89
2019-03-22T16:28:19.508Z,50.18
2019-03-22T16:29:19.756Z,49.89
2019-03-22T16:31:23.927Z,50.37
2019-03-22T16:32:24.177Z,50.54
2019-03-22T16:34:28.373Z,50.18
2019-03-22T16:35:28.623Z,50.47
2019-03-22T16:37:32.817Z,50.27
2019-03-22T16:38:33.062Z,50.45
2019-03-22T16:40:37.231Z,50.54
2019-03-22T16:41:37.477Z,51.41
2019-03-22T16:43:41.681Z,51.57
2019-03-22T16:44:41.928Z,51.86
2019-03-22T16:46:46.101Z,51.76
2019-03-22T16:47:46.352Z,51.86
2019-03-22T16:49:39.477Z,52.15
2019-03-22T16:50:39.721Z,52.15
2019-03-22T16:52:43.921Z,52.92
2019-03-22T16:53:44.168Z,55.43
2019-03-22T16:55:48.339Z,56.84
2019-03-22T16:56:48.592Z,57.60
2019-03-22T16:58:52.786Z,56.45
2019-03-22T16:59:53.035Z,57.60
2019-03-22T17:01:57.209Z,57.32
2019-03-22T17:02:57.454Z,56.84
2019-03-22T17:05:01.649Z,57.03
2019-03-22T17:06:01.899Z,58.37
2019-03-22T17:08:06.089Z,61.14
2019-03-22T17:09:06.339Z,62.96
2019-03-22T17:11:10.517Z,64.22
2019-03-22T17:12:10.759Z,64.98
2019-03-22T17:14:14.956Z,64.89
2019-03-22T17:15:15.201Z,65.17
2019-03-22T17:17:19.374Z,67.35
2019-03-22T17:18:19.620Z,68.41
2019-03-22T17:20:23.814Z,69.95
2019-03-22T17:21:24.064Z,69.85
2019-03-22T17:23:28.272Z,71.06
2019-03-22T17:24:28.513Z,74.13
2019-03-22T17:26:32.686Z,83.18
2019-03-22T17:27:32.933Z,85.72
2019-03-22T17:29:26.052Z,87.50
2019-03-22T17:30:26.296Z,88.08
2019-03-22T17:32:30.475Z,90.33
2019-03-22T17:33:31.511Z,87.37
2019-03-22T17:35:34.978Z,87.27
2019-03-22T17:36:35.223Z,86.88
2019-03-22T17:38:39.413Z,91.58
2019-03-22T17:39:39.665Z,92.63
2019-03-22T17:41:43.826Z,92.97
2019-03-22T17:42:44.071Z,90.86
2019-03-22T17:44:48.268Z,85.02
2019-03-22T17:45:48.513Z,86.17
2019-03-22T17:47:52.701Z,86.84
2019-03-22T17:48:52.944Z,83.59
2019-03-22T17:50:57.121Z,82.38
2019-03-22T17:51:57.363Z,82.09
2019-03-22T17:54:01.552Z,83.30
2019-03-22T17:55:01.799Z,84.06
2019-03-22T17:57:05.968Z,86.84
2019-03-22T17:58:06.215Z,87.23
2019-03-22T18:00:10.402Z,88.18
2019-03-22T18:01:10.644Z,90.67
2019-03-22T18:03:14.831Z,91.82
2019-03-22T18:04:23.816Z,90.39
2019-03-22T18:06:19.236Z,93.26
2019-03-22T18:07:19.483Z,96.61
2019-03-22T18:09:12.594Z,95.98
2019-03-22T18:10:12.840Z,97.80
2019-03-22T18:12:17.006Z,99.99
2019-03-22T18:13:17.250Z,99.99
2019-03-22T18:15:21.438Z,99.99
2019-03-22T18:16:21.681Z,99.99
2019-03-22T18:18:25.857Z,99.99
2019-03-22T18:19:26.098Z,99.99
2019-03-22T18:21:30.261Z,99.99
2019-03-22T18:22:30.566Z,99.99
2019-03-22T18:24:34.758Z,99.99
2019-03-22T18:25:34.999Z,99.99
2019-03-22T18:27:39.161Z,99.99
2019-03-22T18:28:39.398Z,99.99
2019-03-22T18:30:43.582Z,99.99
2019-03-22T18:31:43.823Z,99.99
2019-03-22T18:33:48.006Z,99.99
2019-03-22T18:34:48.445Z,99.99
2019-03-22T18:36:52.375Z,99.99
2019-03-22T18:37:52.618Z,99.99
2019-03-22T18:39:45.725Z,99.99
2019-03-22T18:40:46.046Z,99.99
2019-03-22T18:42:50.273Z,99.99
2019-03-22T18:43:50.507Z,99.99
2019-03-22T18:45:54.694Z,95.03
2019-03-22T18:46:54.934Z,94.55
2019-03-22T18:48:59.182Z,99.99
2019-03-22T18:49:59.529Z,99.99
2019-03-22T18:52:03.716Z,99.99
2019-03-22T18:53:03.953Z,99.99
2019-03-22T18:55:08.132Z,99.76
2019-03-22T18:56:08.455Z,97.66
2019-03-22T18:58:12.690Z,96.32
2019-03-22T18:59:12.923Z,99.99
2019-03-22T19:01:17.592Z,99.99
2019-03-22T19:02:17.831Z,99.99
2019-03-22T19:04:22.045Z,99.99
2019-03-22T19:05:22.325Z,99.99
2019-03-22T19:07:26.494Z,99.99
2019-03-22T19:08:26.737Z,99.99
2019-03-22T19:10:30.974Z,99.99
2019-03-22T19:11:31.214Z,99.99
2019-03-22T19:13:35.391Z,99.99
2019-03-22T19:14:35.693Z,99.99
2019-03-22T19:16:39.889Z,99.99
2019-03-22T19:17:40.343Z,99.99
2019-03-22T19:19:33.348Z,99.99
2019-03-22T19:20:33.583Z,98.90
2019-03-22T19:22:38.754Z,97.75
2019-03-22T19:23:38.995Z,96.13
2019-03-22T19:25:43.175Z,95.08
2019-03-22T19:26:43.417Z,93.55
2019-03-22T19:28:47.600Z,99.99
2019-03-22T19:29:47.836Z,99.99
2019-03-22T19:31:51.995Z,99.99
2019-03-22T19:32:52.236Z,99.99
2019-03-22T19:34:56.414Z,99.99
2019-03-22T19:35:56.658Z,99.99
2019-03-22T19:38:00.823Z,99.99
2019-03-22T19:39:01.056Z,99.99
2019-03-22T19:41:05.236Z,99.99
2019-03-22T19:42:05.477Z,99.99
2019-03-22T19:44:09.658Z,99.99
2019-03-22T19:45:09.905Z,99.99
2019-03-22T19:47:14.064Z,99.99
2019-03-22T19:48:14.343Z,99.99
2019-03-22T19:50:18.487Z,99.99
2019-03-22T19:51:18.724Z,99.99
2019-03-22T19:53:22.898Z,99.99
2019-03-22T19:54:23.165Z,99.99
2019-03-22T19:56:27.303Z,99.99
2019-03-22T19:57:27.544Z,99.99
2019-03-22T19:59:20.651Z,99.99
2019-03-22T20:00:20.889Z,99.99
2019-03-22T20:02:25.045Z,99.99
2019-03-22T20:03:25.285Z,99.99
2019-03-22T20:05:29.463Z,99.99
2019-03-22T20:06:29.706Z,99.99
2019-03-22T20:08:33.882Z,99.99
2019-03-22T20:09:34.120Z,99.99
2019-03-22T20:11:38.307Z,99.99
2019-03-22T20:12:38.512Z,99.08
2019-03-22T20:14:43.698Z,97.36
2019-03-22T20:15:43.935Z,96.22
2019-03-22T20:17:48.094Z,99.99
2019-03-22T20:18:48.334Z,99.99
2019-03-22T20:20:52.682Z,99.99
2019-03-22T20:21:52.909Z,98.65
2019-03-22T20:23:57.277Z,94.46
2019-03-22T20:24:57.622Z,93.89
2019-03-22T20:27:01.811Z,92.18
2019-03-22T20:28:02.168Z,91.17
2019-03-22T20:30:06.362Z,84.13
2019-03-22T20:31:07.554Z,83.37
2019-03-22T20:33:10.837Z,83.37
2019-03-22T20:34:11.237Z,83.47
2019-03-22T20:36:15.602Z,87.32
2019-03-22T20:37:15.822Z,90.75
2019-03-22T20:39:08.931Z,98.27
2019-03-22T20:40:09.163Z,99.98
2019-03-22T20:42:13.334Z,99.99
2019-03-22T20:43:13.578Z,99.99
2019-03-22T20:45:23.998Z,99.99
2019-03-22T20:46:18.002Z,99.99
2019-03-22T20:48:22.161Z,99.99
2019-03-22T20:49:22.400Z,99.99
2019-03-22T20:51:26.781Z,99.99
2019-03-22T20:52:27.148Z,99.99
2019-03-22T20:54:31.337Z,99.99
2019-03-22T20:55:31.743Z,99.99
2019-03-22T20:57:36.495Z,99.99
2019-03-22T20:58:36.886Z,99.99
2019-03-22T21:00:41.250Z,99.99
2019-03-22T21:01:41.470Z,99.99
2019-03-22T21:03:45.786Z,99.99
2019-03-22T21:04:46.069Z,99.32
2019-03-22T21:06:50.271Z,97.70
2019-03-22T21:07:50.626Z,97.03
2019-03-22T21:09:43.863Z,95.36
2019-03-22T21:10:44.285Z,96.98
2019-03-22T21:12:48.463Z,99.99
2019-03-22T21:13:48.703Z,99.99
2019-03-22T21:15:52.996Z,99.99
2019-03-22T21:16:53.287Z,99.99
2019-03-22T21:18:57.623Z,99.99
2019-03-22T21:19:57.864Z,99.99
2019-03-22T21:22:02.112Z,99.99
2019-03-22T21:23:02.382Z,99.99
2019-03-22T21:25:06.697Z,99.99
2019-03-22T21:26:07.083Z,99.99
2019-03-22T21:28:11.243Z,99.99
2019-03-22T21:29:11.608Z,99.99
2019-03-22T21:31:15.794Z,99.99
2019-03-22T21:32:16.091Z,99.99
2019-03-22T21:34:20.272Z,99.99
2019-03-22T21:35:22.809Z,99.51
2019-03-22T21:37:24.837Z,99.99
2019-03-22T21:38:25.105Z,99.99
2019-03-22T21:40:29.284Z,98.50
2019-03-22T21:41:29.521Z,95.84
2019-03-22T21:43:33.734Z,96.98
2019-03-22T21:44:33.917Z,97.74
2019-03-22T21:46:38.092Z,97.36
2019-03-22T21:47:38.335Z,96.12
2019-03-22T21:49:31.434Z,92.70
2019-03-22T21:50:31.673Z,90.51
2019-03-22T21:52:35.823Z,88.23
2019-03-22T21:53:36.058Z,84.85
2019-03-22T21:55:40.238Z,67.79
2019-03-22T21:56:40.475Z,64.65
2019-03-22T21:58:44.684Z,63.60
2019-03-22T21:59:44.865Z,61.32
2019-03-22T22:01:49.044Z,59.05
2019-03-22T22:02:49.282Z,56.85
2019-03-22T22:04:53.455Z,53.31
2019-03-22T22:05:53.691Z,58.37
2019-03-22T22:07:57.841Z,72.11
2019-03-22T22:08:58.078Z,70.01
2019-03-22T22:11:02.256Z,78.96
2019-03-22T22:12:02.495Z,80.95
2019-03-22T22:14:06.673Z,85.47
2019-03-22T22:15:06.912Z,88.89
2019-03-22T22:17:11.075Z,91.08
2019-03-22T22:18:11.300Z,90.51
2019-03-22T22:20:15.483Z,90.13
2019-03-22T22:21:15.721Z,90.42
2019-03-22T22:23:19.906Z,89.94
2019-03-22T22:24:20.106Z,88.79
2019-03-22T22:26:24.279Z,73.72
2019-03-22T22:27:24.516Z,73.11
2019-03-22T22:29:17.615Z,74.87
2019-03-22T22:30:17.850Z,77.62
2019-03-22T22:32:22.003Z,73.69
2019-03-22T22:33:22.243Z,70.83
2019-03-22T22:35:26.435Z,66.74
2019-03-22T22:36:26.676Z,65.51
2019-03-22T22:38:30.827Z,67.79
2019-03-22T22:39:31.087Z,71.97
2019-03-22T22:41:35.240Z,73.69
2019-03-22T22:42:35.475Z,74.16
2019-03-22T22:44:39.653Z,77.01
2019-03-22T22:45:39.894Z,75.59
2019-03-22T22:47:44.047Z,70.70
2019-03-22T22:48:44.284Z,64.05
2019-03-22T22:50:48.458Z,55.69
2019-03-22T22:51:48.695Z,57.40
2019-03-22T22:53:52.847Z,62.85
2019-03-22T22:54:53.088Z,64.46
2019-03-22T22:56:57.259Z,63.79
2019-03-22T22:57:57.501Z,63.42
2019-03-22T23:00:01.677Z,65.22
2019-03-22T23:01:01.914Z,66.08
2019-03-22T23:03:06.065Z,64.94
2019-03-22T23:04:06.302Z,63.76
2019-03-22T23:06:10.483Z,64.53
2019-03-22T23:07:10.718Z,63.01
2019-03-22T23:09:03.799Z,57.11
2019-03-22T23:10:04.036Z,49.89
2019-03-22T23:12:08.215Z,44.76
2019-03-22T23:13:08.450Z,43.05
2019-03-22T23:15:12.627Z,40.39
2019-03-22T23:16:12.864Z,42.47
2019-03-22T23:18:17.020Z,49.98
2019-03-22T23:19:17.259Z,52.36
2019-03-22T23:21:21.436Z,55.59
2019-03-22T23:22:21.674Z,56.35
2019-03-22T23:24:25.828Z,57.14
2019-03-22T23:25:26.065Z,57.68
2019-03-22T23:27:30.246Z,56.26
2019-03-22T23:28:30.490Z,54.93
2019-03-22T23:30:34.664Z,52.55
2019-03-22T23:31:34.901Z,52.26
2019-03-22T23:33:39.056Z,48.18
2019-03-22T23:34:39.293Z,47.58
2019-03-22T23:36:43.468Z,45.68
2019-03-22T23:37:43.711Z,39.89
2019-03-22T23:39:36.826Z,33.15
2019-03-22T23:40:37.061Z,28.68
2019-03-22T23:42:41.216Z,29.92
2019-03-22T23:43:41.454Z,28.59
2019-03-22T23:45:45.628Z,23.36
2019-03-22T23:46:45.865Z,18.04
2019-03-22T23:48:50.022Z,20.42
2019-03-22T23:49:50.256Z,24.69
2019-03-22T23:51:54.433Z,37.54
2019-03-22T23:52:54.672Z,43.43
2019-03-22T23:54:58.858Z,46.20
2019-03-22T23:55:59.096Z,46.47
2019-03-22T23:58:03.263Z,42.57
2019-03-22T23:59:03.499Z,41.72
